Time;durP1;ratioP1;P1;durP2;ratioP2;P2;SDS_P1;SDS_P2;PMS_P1;PMS_P2;Temp;Humidity;BMP_temperature;BMP_pressure;BME280_temperature;BME280_humidity;BME280_pressure;Samples;Min_cycle;Max_cycle;Signal;HPM_P1;HPM_P2
2021/01/08 00:01:28;;;;;;;19.20;17.20;;;;;;;0.53;94.84;99872.66;5050790;28;20195;-73
2021/01/08 00:03:54;;;;;;;17.97;15.93;;;;;;;0.54;94.65;99858.16;5050748;28;20418;-73
2021/01/08 00:06:20;;;;;;;18.83;16.93;;;;;;;0.53;95.07;99864.59;5050243;28;20179;-72
2021/01/08 00:08:45;;;;;;;16.03;14.43;;;;;;;0.51;95.03;99864.03;5050574;28;20171;-72
2021/01/08 00:11:11;;;;;;;17.90;16.20;;;;;;;0.52;95.12;99865.66;5050509;28;20790;-73
2021/01/08 00:13:36;;;;;;;18.63;16.67;;;;;;;0.51;94.85;99861.34;5051035;28;20179;-73
2021/01/08 00:16:05;;;;;;;18.00;16.37;;;;;;;0.51;94.80;99861.34;5050340;28;20171;-73
2021/01/08 00:18:30;;;;;;;19.33;17.33;;;;;;;0.53;95.26;99864.59;5050378;28;20562;-73
2021/01/08 00:20:56;;;;;;;18.77;16.97;;;;;;;0.54;95.31;99860.84;5049178;28;20410;-73
2021/01/08 00:23:21;;;;;;;18.50;16.67;;;;;;;0.57;94.85;99865.69;5050355;28;20262;-72
2021/01/08 00:25:50;;;;;;;15.83;14.23;;;;;;;0.56;94.69;99866.75;5050535;28;20179;-73
2021/01/08 00:28:16;;;;;;;17.73;15.93;;;;;;;0.57;95.05;99868.38;5050246;28;20183;-73
2021/01/08 00:30:41;;;;;;;15.90;14.27;;;;;;;0.57;95.11;99862.19;5050352;28;20762;-72
2021/01/08 00:33:07;;;;;;;16.97;15.47;;;;;;;0.57;94.99;99865.69;5048979;28;20198;-73
2021/01/08 00:35:32;;;;;;;18.23;16.43;;;;;;;0.55;94.80;99867.81;5050411;28;20168;-72
2021/01/08 00:37:57;;;;;;;18.53;16.83;;;;;;;0.56;94.81;99874.00;5050021;28;20175;-73
2021/01/08 00:40:23;;;;;;;15.10;13.53;;;;;;;0.55;94.84;99862.44;5050654;28;20248;-73
2021/01/08 00:42:48;;;;;;;15.73;14.13;;;;;;;0.54;95.09;99866.22;5050593;28;20199;-73
2021/01/08 00:45:14;;;;;;;13.50;11.97;;;;;;;0.51;95.02;99861.34;5050326;28;20182;-73
2021/01/08 00:47:39;;;;;;;19.97;18.03;;;;;;;0.53;94.71;99858.41;5050255;28;20688;-73
2021/01/08 00:50:05;;;;;;;17.90;16.30;;;;;;;0.56;94.88;99861.38;5050297;28;20254;-73
2021/01/08 00:52:31;;;;;;;18.20;16.40;;;;;;;0.58;94.97;99856.59;5048814;28;20211;-73
2021/01/08 00:54:56;;;;;;;19.90;17.90;;;;;;;0.57;94.90;99871.06;5050251;28;20965;-72
2021/01/08 00:57:21;;;;;;;16.77;15.07;;;;;;;0.61;95.03;99863.31;5048610;28;20682;-73
2021/01/08 00:59:46;;;;;;;16.87;15.33;;;;;;;0.66;94.69;99871.41;5048912;28;20182;-73
2021/01/08 01:02:12;;;;;;;16.83;15.27;;;;;;;0.65;94.49;99872.47;5050203;28;20191;-72
2021/01/08 01:04:37;;;;;;;17.10;15.33;;;;;;;0.64;94.23;99872.72;5051691;28;20273;-73
2021/01/08 01:07:03;;;;;;;14.50;13.07;;;;;;;0.59;94.53;99873.50;5053633;28;20531;-73
2021/01/08 01:09:28;;;;;;;15.43;13.93;;;;;;;0.54;94.25;99866.22;5053950;28;20304;-73
2021/01/08 01:11:53;;;;;;;15.40;13.83;;;;;;;0.52;94.68;99859.47;5053899;28;20214;-73
2021/01/08 01:14:18;;;;;;;14.67;13.27;;;;;;;0.51;94.97;99869.41;5054180;28;20254;-73
2021/01/08 01:16:44;;;;;;;16.20;14.60;;;;;;;0.51;94.84;99872.09;5053517;28;20180;-73
2021/01/08 01:19:09;;;;;;;15.23;13.63;;;;;;;0.52;94.58;99871.03;5053973;28;20179;-73
2021/01/08 01:21:35;;;;;;;14.17;12.83;;;;;;;0.49;95.04;99874.25;5053719;28;20179;-73
2021/01/08 01:24:00;;;;;;;17.20;15.50;;;;;;;0.45;95.33;99867.78;5053787;28;20175;-73
2021/01/08 01:26:25;;;;;;;17.33;15.53;;;;;;;0.42;95.38;99879.03;5053292;28;20191;-72
2021/01/08 01:28:51;;;;;;;15.97;14.57;;;;;;;0.42;95.30;99878.22;5053594;28;20171;-73
2021/01/08 01:31:16;;;;;;;17.60;15.70;;;;;;;0.41;95.25;99876.59;5053492;28;20360;-72
2021/01/08 01:33:41;;;;;;;18.57;14.20;;;;;;;0.40;95.70;99873.09;5053618;28;20298;-73
2021/01/08 01:36:08;;;;;;;15.77;14.27;;;;;;;0.39;95.24;99884.91;5053272;28;20175;-73
2021/01/08 01:38:35;;;;;;;15.60;14.00;;;;;;;0.38;95.47;99874.44;5053297;28;20272;-73
2021/01/08 01:41:01;;;;;;;15.63;14.13;;;;;;;0.38;95.87;99874.44;5053356;28;20533;-73
2021/01/08 01:43:26;;;;;;;12.27;11.07;;;;;;;0.34;95.51;99863.41;5052199;28;20509;-72
2021/01/08 01:45:52;;;;;;;15.93;14.43;;;;;;;0.34;95.98;99868.78;5053153;28;20171;-73
2021/01/08 01:48:18;;;;;;;15.43;13.83;;;;;;;0.37;95.84;99884.38;5053006;28;20176;-72
2021/01/08 01:50:44;;;;;;;13.90;12.50;;;;;;;0.38;96.09;99887.88;5052990;28;20172;-73
2021/01/08 01:53:09;;;;;;;13.90;12.60;;;;;;;0.39;95.95;99892.97;5053080;28;20828;-73
2021/01/08 01:55:35;;;;;;;16.20;14.60;;;;;;;0.40;95.91;99888.41;5053191;28;20258;-73
2021/01/08 01:58:02;;;;;;;13.93;12.53;;;;;;;0.42;95.72;99887.09;5052065;28;20622;-73
2021/01/08 02:00:27;;;;;;;16.07;14.57;;;;;;;0.43;95.42;99886.00;5053085;28;20176;-73
2021/01/08 02:03:03;;;;;;;16.43;14.47;;;;;;;0.46;95.33;99890.91;5053028;28;20491;-73
2021/01/08 02:05:30;;;;;;;14.77;13.40;;;;;;;0.49;95.71;99886.88;5052881;28;20563;-73
2021/01/08 02:08:08;;;;;;;13.60;12.40;;;;;;;0.55;95.53;99881.25;5052522;28;20418;-73
2021/01/08 02:10:47;;;;;;;14.57;13.20;;;;;;;0.61;95.36;99892.88;5052867;28;20433;-73
2021/01/08 02:13:23;;;;;;;14.10;12.53;;;;;;;0.61;95.13;99886.69;5052811;28;20798;-73
2021/01/08 02:15:49;;;;;;;13.00;11.80;;;;;;;0.57;94.92;99884.50;5052477;28;20509;-73
2021/01/08 02:18:16;;;;;;;12.63;11.43;;;;;;;0.53;94.89;99893.34;5052506;28;20782;-73
2021/01/08 02:20:42;;;;;;;12.93;11.67;;;;;;;0.52;94.63;99891.72;5052697;28;20417;-73
2021/01/08 02:23:14;;;;;;;12.60;11.30;;;;;;;0.51;95.17;99890.91;5052721;28;21050;-73
2021/01/08 02:25:39;;;;;;;14.97;13.47;;;;;;;0.52;94.94;99895.22;5052714;28;20171;-73
2021/01/08 02:28:05;;;;;;;15.50;13.63;;;;;;;0.51;94.65;99890.91;5052125;28;20929;-73
2021/01/08 02:30:32;;;;;;;15.20;13.80;;;;;;;0.52;94.83;99894.41;5052847;28;20175;-73
2021/01/08 02:32:58;;;;;;;14.00;12.63;;;;;;;0.54;94.77;99893.09;5051107;28;20676;-73
2021/01/08 02:35:24;;;;;;;13.90;12.60;;;;;;;0.54;94.65;99898.47;5052369;28;20416;-73
2021/01/08 02:37:51;;;;;;;13.57;12.30;;;;;;;0.56;94.91;99895.50;5052250;28;20421;-73
2021/01/08 02:40:17;;;;;;;14.97;13.57;;;;;;;0.56;94.97;99898.19;5052365;28;20190;-73
2021/01/08 02:42:45;;;;;;;14.67;13.37;;;;;;;0.62;95.30;99899.88;5052277;28;20425;-73
2021/01/08 02:45:12;;;;;;;13.93;12.73;;;;;;;0.67;95.20;99896.38;5052224;28;20500;-73
2021/01/08 02:47:37;;;;;;;14.20;12.90;;;;;;;0.70;94.82;99903.94;5051886;28;20448;-73
2021/01/08 02:50:04;;;;;;;14.73;13.33;;;;;;;0.61;95.10;99900.94;5052098;28;20417;-73
2021/01/08 02:52:31;;;;;;;14.43;12.93;;;;;;;0.57;94.64;99892.56;5051948;28;20225;-73
2021/01/08 02:54:58;;;;;;;13.77;12.57;;;;;;;0.52;95.28;99902.47;5052005;28;20759;-73
2021/01/08 02:57:25;;;;;;;12.60;11.50;;;;;;;0.46;94.82;99896.28;5051655;28;20451;-73
2021/01/08 02:59:54;;;;;;;13.07;11.80;;;;;;;0.42;95.08;99897.84;5052019;28;20434;-73
2021/01/08 03:02:19;;;;;;;12.77;11.47;;;;;;;0.38;95.13;99899.44;5051738;28;20418;-73
2021/01/08 03:04:45;;;;;;;13.53;12.33;;;;;;;0.37;95.83;99910.44;5051930;28;20422;-73
2021/01/08 03:07:10;;;;;;;11.07;10.07;;;;;;;0.37;95.80;99892.44;5051451;28;20198;-73
2021/01/08 03:09:36;;;;;;;13.97;12.67;;;;;;;0.35;95.99;99896.44;5051724;28;20183;-73
2021/01/08 03:12:01;;;;;;;13.00;11.73;;;;;;;0.36;96.05;99901.56;5051566;28;20286;-73
2021/01/08 03:14:27;;;;;;;13.03;11.90;;;;;;;0.37;96.01;99891.63;5051779;28;20175;-73
2021/01/08 03:16:52;;;;;;;11.60;10.50;;;;;;;0.39;96.13;99895.66;5051085;28;20336;-73
2021/01/08 03:19:18;;;;;;;13.07;11.87;;;;;;;0.43;95.89;99899.44;5052246;28;20183;-73
2021/01/08 03:21:43;;;;;;;12.57;11.47;;;;;;;0.45;95.48;99897.34;5051550;28;20542;-73
2021/01/08 03:24:10;;;;;;;12.30;11.20;;;;;;;0.46;95.42;99884.72;5051657;28;20171;-73
2021/01/08 03:26:35;;;;;;;12.97;11.77;;;;;;;0.51;95.65;99885.53;5050427;28;20191;-73
2021/01/08 03:29:01;;;;;;;11.77;10.77;;;;;;;0.47;95.55;99897.06;5051487;28;20425;-73
2021/01/08 03:31:26;;;;;;;10.93;9.93;;;;;;;0.46;95.59;99893.59;5051251;28;20528;-73
2021/01/08 03:33:51;;;;;;;10.53;9.63;;;;;;;0.44;95.02;99884.97;5051610;28;20669;-73
2021/01/08 03:36:17;;;;;;;10.37;9.47;;;;;;;0.40;95.20;99891.09;5050924;28;20171;-73
2021/01/08 03:38:42;;;;;;;10.40;9.40;;;;;;;0.38;95.12;99887.88;5050546;28;20171;-73
2021/01/08 03:41:08;;;;;;;9.57;8.77;;;;;;;0.33;94.88;99883.28;5050774;28;20543;-72
2021/01/08 03:43:33;;;;;;;6.63;6.03;;;;;;;0.34;95.10;99882.22;5051373;28;20183;-73
2021/01/08 03:45:58;;;;;;;8.33;7.53;;;;;;;0.29;95.23;99895.63;5051108;28;20603;-73
2021/01/08 03:48:24;;;;;;;6.93;6.33;;;;;;;0.26;95.22;99888.84;5050806;28;20183;-73
2021/01/08 03:50:49;;;;;;;8.43;7.47;;;;;;;0.26;95.34;99898.78;5051107;28;20183;-73
2021/01/08 03:53:14;;;;;;;8.40;7.60;;;;;;;0.21;94.77;99894.19;5050861;28;20195;-73
2021/01/08 03:55:40;;;;;;;6.60;5.97;;;;;;;0.22;95.13;99892.31;5051030;28;20191;-73
2021/01/08 03:58:05;;;;;;;7.13;6.50;;;;;;;0.19;95.04;99898.22;5050556;28;20175;-73
2021/01/08 04:00:30;;;;;;;7.13;5.87;;;;;;;0.21;95.20;99888.00;5049648;28;20179;-72
2021/01/08 04:02:55;;;;;;;8.77;7.90;;;;;;;0.22;95.07;99898.50;5051121;28;20228;-73
2021/01/08 04:05:21;;;;;;;5.80;5.30;;;;;;;0.22;94.87;99893.13;5050856;28;20736;-73
2021/01/08 04:07:46;;;;;;;7.60;6.97;;;;;;;0.23;94.81;99902.00;5050657;28;20203;-73
2021/01/08 04:10:12;;;;;;;8.27;7.47;;;;;;;0.22;95.04;99895.81;5050780;28;20206;-73
2021/01/08 04:12:37;;;;;;;8.37;7.63;;;;;;;0.23;94.94;99894.75;5050555;28;20241;-73
2021/01/08 04:15:03;;;;;;;7.93;6.80;;;;;;;0.22;94.88;99897.69;5050843;28;20508;-73
2021/01/08 04:17:28;;;;;;;5.90;5.40;;;;;;;0.21;94.79;99893.38;5050628;28;20228;-72
2021/01/08 04:19:54;;;;;;;6.13;5.60;;;;;;;0.19;95.02;99896.34;5050690;28;20421;-72
2021/01/08 04:22:19;;;;;;;7.77;7.07;;;;;;;0.18;95.09;99896.59;5050621;28;20244;-73
2021/01/08 04:24:44;;;;;;;9.03;7.47;;;;;;;0.17;94.72;99900.34;5051114;28;20237;-73
2021/01/08 04:27:10;;;;;;;7.73;6.70;;;;;;;0.16;95.21;99898.72;5050436;28;20550;-73
2021/01/08 04:29:35;;;;;;;8.53;7.73;;;;;;;0.16;95.22;99904.91;5050747;28;20182;-73
2021/01/08 04:32:01;;;;;;;8.00;7.30;;;;;;;0.15;95.23;99897.91;5051503;28;20207;-73
2021/01/08 04:34:26;;;;;;;9.43;8.53;;;;;;;0.16;95.42;99904.91;5052897;28;20175;-73
2021/01/08 04:36:51;;;;;;;8.63;7.87;;;;;;;0.18;95.23;99905.47;5051260;28;20182;-73
2021/01/08 04:39:16;;;;;;;7.33;6.73;;;;;;;0.18;94.98;99905.47;5051588;28;20179;-73
2021/01/08 04:41:43;;;;;;;7.80;7.07;;;;;;;0.17;95.19;99903.03;5054535;28;20187;-73
2021/01/08 04:44:08;;;;;;;7.37;6.67;;;;;;;0.17;95.52;99900.34;5054699;28;20186;-72
2021/01/08 04:46:35;;;;;;;9.60;8.70;;;;;;;0.18;95.35;99910.81;5054185;28;20421;-72
2021/01/08 04:49:04;;;;;;;6.67;6.07;;;;;;;0.17;95.25;99903.84;5054764;28;20210;-72
2021/01/08 04:51:30;;;;;;;9.23;8.43;;;;;;;0.17;95.11;99911.91;5054290;28;20449;-73
2021/01/08 04:53:56;;;;;;;6.57;5.40;;;;;;;0.19;95.41;99900.91;5054314;28;20426;-73
2021/01/08 04:56:25;;;;;;;8.33;7.53;;;;;;;0.16;95.61;99906.78;5054012;28;20425;-73
2021/01/08 04:58:51;;;;;;;7.93;7.13;;;;;;;0.15;95.36;99905.97;5052895;28;21031;-73
2021/01/08 05:01:17;;;;;;;4.37;3.73;;;;;;;0.17;95.09;99901.16;5054110;28;20516;-73
2021/01/08 05:03:42;;;;;;;5.73;5.13;;;;;;;0.17;94.93;99903.84;5054198;28;20433;-73
2021/01/08 05:06:07;;;;;;;4.00;3.60;;;;;;;0.17;94.92;99914.59;5053746;28;20539;-73
2021/01/08 05:08:33;;;;;;;6.37;5.77;;;;;;;0.18;95.29;99912.72;5053992;28;20626;-73
2021/01/08 05:11:25;;;;;;;7.20;6.50;;;;;;;0.19;95.57;99914.31;5053948;28;20179;-73
2021/01/08 05:13:56;;;;;;;6.93;6.23;;;;;;;0.19;95.12;99912.44;5054099;28;20642;-73
2021/01/08 05:16:25;;;;;;;8.73;7.87;;;;;;;0.20;95.01;99907.88;5053573;28;20406;-73
2021/01/08 05:18:52;;;;;;;6.50;5.83;;;;;;;0.21;95.53;99915.69;5053910;28;20505;-73
2021/01/08 05:21:19;;;;;;;8.47;7.27;;;;;;;0.20;95.54;99905.19;5053710;28;20422;-72
2021/01/08 05:23:46;;;;;;;8.63;6.30;;;;;;;0.21;95.35;99909.50;5054205;28;20433;-72
2021/01/08 05:26:15;;;;;;;7.50;6.80;;;;;;;0.23;95.18;99902.00;5053598;28;20567;-73
2021/01/08 05:28:55;;;;;;;7.47;6.23;;;;;;;0.22;95.07;99903.88;5053613;28;20410;-73
2021/01/08 05:31:23;;;;;;;7.73;7.03;;;;;;;0.23;95.42;99915.44;5053604;28;20424;-72
2021/01/08 05:33:50;;;;;;;9.03;7.30;;;;;;;0.23;95.15;99913.53;5053853;28;20425;-73
2021/01/08 05:36:16;;;;;;;5.73;5.13;;;;;;;0.22;95.25;99908.44;5053088;28;20478;-73
2021/01/08 05:38:51;;;;;;;8.00;7.23;;;;;;;0.21;95.54;99915.69;5053281;28;20418;-72
2021/01/08 05:41:17;;;;;;;4.60;3.87;;;;;;;0.22;95.25;99919.19;5053706;28;20500;-73
2021/01/08 05:43:44;;;;;;;8.83;7.93;;;;;;;0.20;95.26;99918.63;5053303;28;20430;-73
2021/01/08 05:46:12;;;;;;;6.70;5.93;;;;;;;0.21;95.07;99920.25;5052721;28;20571;-73
2021/01/08 05:48:40;;;;;;;8.40;7.33;;;;;;;0.23;95.43;99918.09;5053098;28;20463;-73
2021/01/08 05:51:06;;;;;;;9.93;8.27;;;;;;;0.23;95.49;99921.59;5052717;28;20426;-73
2021/01/08 05:53:37;;;;;;;8.17;6.63;;;;;;;0.22;95.17;99932.59;5053231;28;20457;-73
2021/01/08 05:56:03;;;;;;;8.70;5.57;;;;;;;0.21;95.50;99926.44;5052825;28;20421;-72
2021/01/08 05:58:28;;;;;;;10.40;8.50;;;;;;;0.22;95.69;99928.03;5052822;28;20931;-72
2021/01/08 06:01:04;;;;;;;9.70;8.70;;;;;;;0.21;95.22;99925.63;5052919;28;20183;-72
2021/01/08 06:03:30;;;;;;;10.00;8.07;;;;;;;0.21;95.64;99939.84;5053007;28;20183;-73
2021/01/08 06:06:01;;;;;;;7.43;6.57;;;;;;;0.22;95.86;99935.28;5052807;28;20937;-73
2021/01/08 06:08:36;;;;;;;9.10;8.20;;;;;;;0.18;95.51;99936.88;5052686;28;20425;-73
2021/01/08 06:11:04;;;;;;;10.77;9.70;;;;;;;0.17;95.52;99941.44;5052858;28;20467;-73
2021/01/08 06:13:31;;;;;;;7.23;6.43;;;;;;;0.17;95.97;99941.44;5052966;28;20464;-73
2021/01/08 06:15:57;;;;;;;8.77;7.67;;;;;;;0.16;95.74;99944.38;5052462;28;20465;-73
2021/01/08 06:18:25;;;;;;;9.27;8.37;;;;;;;0.16;95.98;99941.69;5051092;28;20422;-73
2021/01/08 06:21:02;;;;;;;9.57;8.67;;;;;;;0.16;95.94;99944.38;5052722;28;20414;-72
2021/01/08 06:23:42;;;;;;;12.57;9.47;;;;;;;0.15;96.71;99948.13;5052548;28;20418;-73
2021/01/08 06:26:10;;;;;;;10.90;9.43;;;;;;;0.17;96.29;99946.00;5052135;28;20559;-73
2021/01/08 06:28:38;;;;;;;11.97;10.13;;;;;;;0.17;96.70;99941.44;5052448;28;20487;-72
2021/01/08 06:31:06;;;;;;;12.97;10.43;;;;;;;0.18;96.52;99947.63;5052679;28;20911;-73
2021/01/08 06:33:36;;;;;;;15.23;11.87;;;;;;;0.17;96.71;99956.75;5052400;28;20959;-73
2021/01/08 06:36:16;;;;;;;14.97;11.00;;;;;;;0.20;96.52;99945.50;5052352;28;20418;-73
2021/01/08 06:38:46;;;;;;;12.40;9.80;;;;;;;0.19;96.99;99947.38;5052365;28;21197;-73
2021/01/08 06:41:13;;;;;;;14.43;11.17;;;;;;;0.20;97.16;99950.88;5052381;28;20413;-73
2021/01/08 06:43:45;;;;;;;13.53;11.27;;;;;;;0.20;97.09;99950.88;5052220;28;20425;-73
2021/01/08 06:46:24;;;;;;;13.27;9.93;;;;;;;0.19;96.87;99957.31;5051844;28;20413;-73
2021/01/08 06:48:53;;;;;;;15.13;11.37;;;;;;;0.18;97.12;99961.06;5052041;28;20843;-73
2021/01/08 06:51:25;;;;;;;12.03;10.80;;;;;;;0.18;97.15;99958.38;5050852;28;20788;-73
2021/01/08 06:53:54;;;;;;;14.10;12.40;;;;;;;0.19;97.21;99966.16;5052127;28;20512;-73
2021/01/08 06:56:27;;;;;;;18.83;12.83;;;;;;;0.20;96.92;99966.97;5050174;28;20433;-73
2021/01/08 06:58:54;;;;;;;16.27;12.47;;;;;;;0.26;97.09;99976.69;5051822;28;20414;-73
2021/01/08 07:01:27;;;;;;;15.47;12.17;;;;;;;0.26;97.18;99969.44;5051284;28;20422;-73
2021/01/08 07:03:53;;;;;;;18.10;13.57;;;;;;;0.23;97.44;99978.00;5051635;28;20418;-73
2021/01/08 07:06:19;;;;;;;15.80;13.00;;;;;;;0.20;97.07;99983.91;5050124;28;20947;-72
2021/01/08 07:08:45;;;;;;;14.07;12.20;;;;;;;0.21;97.25;99980.16;5051625;28;20418;-73
2021/01/08 07:11:25;;;;;;;17.03;12.77;;;;;;;0.19;97.25;99987.66;5051848;28;20377;-73
2021/01/08 07:14:03;;;;;;;14.63;12.50;;;;;;;0.22;97.82;99989.81;5051879;28;20641;-73
2021/01/08 07:16:29;;;;;;;15.20;12.87;;;;;;;0.25;97.28;99991.19;5051300;28;20518;-73
2021/01/08 07:19:03;;;;;;;14.30;12.43;;;;;;;0.26;97.25;99996.31;5050308;28;20510;-73
2021/01/08 07:21:30;;;;;;;16.00;13.50;;;;;;;0.22;97.17;99997.06;5050422;28;20218;-73
2021/01/08 07:23:57;;;;;;;14.80;12.37;;;;;;;0.16;97.22;100003.47;5051601;28;20445;-73
2021/01/08 07:26:27;;;;;;;18.70;13.10;;;;;;;0.13;97.27;100009.31;5050913;28;20904;-73
2021/01/08 07:28:53;;;;;;;14.67;12.27;;;;;;;0.11;97.27;99998.84;5051363;28;20425;-73
2021/01/08 07:31:33;;;;;;;15.13;12.73;;;;;;;0.08;97.23;100007.41;5051420;28;20417;-73
2021/01/08 07:34:00;;;;;;;16.77;13.03;;;;;;;0.03;97.29;100023.47;5051342;28;20467;-73
2021/01/08 07:36:27;;;;;;;13.80;12.17;;;;;;;0.01;97.61;100024.81;5051264;28;20413;-73
2021/01/08 07:38:54;;;;;;;15.77;12.80;;;;;;;-0.01;97.66;100025.84;5051637;28;20928;-72
2021/01/08 07:41:32;;;;;;;14.93;13.20;;;;;;;-0.01;97.90;100031.22;5051296;28;20413;-73
2021/01/08 07:43:58;;;;;;;17.87;11.87;;;;;;;0.00;98.04;100032.06;5051253;28;20414;-73
2021/01/08 07:46:34;;;;;;;17.47;13.50;;;;;;;-0.05;97.97;100032.78;5050785;28;20418;-73
2021/01/08 07:49:02;;;;;;;16.07;12.83;;;;;;;-0.02;98.21;100044.88;5051043;28;20269;-73
2021/01/08 07:51:48;;;;;;;15.60;12.63;;;;;;;-0.05;97.82;100048.91;5051059;28;20414;-73
2021/01/08 07:54:14;;;;;;;16.27;11.87;;;;;;;-0.05;98.05;100051.56;5050443;28;20426;-72
2021/01/08 07:57:08;;;;;;;13.80;10.70;;;;;;;-0.11;98.35;100055.28;5050073;28;20764;-73
2021/01/08 07:59:33;;;;;;;11.77;10.60;;;;;;;-0.11;98.21;100052.59;5033454;28;20739;-73
2021/01/08 08:01:59;;;;;;;14.23;11.90;;;;;;;-0.08;98.01;100064.69;5050083;28;20464;-73
2021/01/08 08:04:27;;;;;;;13.00;11.67;;;;;;;-0.06;98.34;100066.06;5051207;28;20171;-73
2021/01/08 08:06:53;;;;;;;14.47;11.20;;;;;;;-0.06;98.08;100065.25;5050499;28;20198;-73
2021/01/08 08:09:20;;;;;;;12.43;11.13;;;;;;;-0.09;98.50;100068.44;5050894;28;20410;-74
2021/01/08 08:11:47;;;;;;;10.90;9.80;;;;;;;-0.09;98.63;100073.81;5050720;28;20450;-73
2021/01/08 08:14:20;;;;;;;10.33;8.80;;;;;;;-0.06;98.48;100059.88;5050670;28;20748;-73
2021/01/08 08:16:45;;;;;;;10.10;9.07;;;;;;;-0.10;98.13;100070.31;5050441;28;20417;-73
2021/01/08 08:19:15;;;;;;;8.00;7.20;;;;;;;-0.08;98.65;100078.13;5050864;28;20410;-73
2021/01/08 08:21:46;;;;;;;10.77;9.70;;;;;;;-0.10;98.24;100089.13;5050761;28;20560;-73
2021/01/08 08:24:16;;;;;;;9.90;8.90;;;;;;;-0.10;98.36;100091.00;5050652;28;20420;-73
2021/01/08 08:26:42;;;;;;;9.80;8.80;;;;;;;-0.09;98.67;100093.41;5048437;28;20438;-74
2021/01/08 08:29:13;;;;;;;9.57;7.97;;;;;;;-0.09;98.28;100085.38;5050558;28;20414;-73
2021/01/08 08:31:45;;;;;;;8.63;7.63;;;;;;;-0.09;98.55;100095.28;5050540;28;20494;-73
2021/01/08 08:34:12;;;;;;;10.47;9.47;;;;;;;-0.08;98.25;100100.41;5050653;28;20432;-73
2021/01/08 08:36:38;;;;;;;11.07;9.03;;;;;;;-0.05;98.45;100110.66;5050106;28;20909;-73
2021/01/08 08:39:08;;;;;;;9.87;8.93;;;;;;;-0.03;98.25;100099.66;5050308;28;20482;-75
2021/01/08 08:41:36;;;;;;;9.10;8.20;;;;;;;-0.01;98.42;100106.38;5050360;28;20413;-75
2021/01/08 08:44:09;;;;;;;10.17;9.17;;;;;;;0.02;98.68;100109.66;5050419;28;20402;-75
2021/01/08 08:46:51;;;;;;;9.30;8.30;;;;;;;0.01;98.67;100108.03;5050121;28;20656;-74
2021/01/08 08:49:24;;;;;;;11.17;8.53;;;;;;;0.04;98.59;100110.22;5050730;28;20472;-74
2021/01/08 08:51:51;;;;;;;11.40;9.07;;;;;;;0.03;98.57;100114.78;5050398;28;20453;-74
2021/01/08 08:54:17;;;;;;;7.77;6.70;;;;;;;0.04;98.25;100119.09;5050364;28;20414;-75
2021/01/08 08:56:48;;;;;;;11.23;10.23;;;;;;;0.06;98.43;100119.66;5050067;28;20441;-75
2021/01/08 08:59:15;;;;;;;6.73;5.97;;;;;;;0.07;98.30;100125.84;5050646;28;20560;-75
2021/01/08 09:01:42;;;;;;;11.47;10.37;;;;;;;0.07;98.13;100123.16;5049909;28;20489;-75
2021/01/08 09:04:12;;;;;;;8.97;8.13;;;;;;;0.04;98.31;100126.34;5050239;28;20501;-74
2021/01/08 09:06:43;;;;;;;8.60;7.70;;;;;;;0.02;98.20;100121.22;5050126;28;20410;-75
2021/01/08 09:09:17;;;;;;;9.83;8.83;;;;;;;0.03;98.36;100130.09;5050179;28;20567;-74
2021/01/08 09:11:55;;;;;;;10.57;9.57;;;;;;;0.04;98.41;100131.72;5050359;28;20413;-74
2021/01/08 09:14:24;;;;;;;10.10;9.10;;;;;;;0.03;98.38;100132.78;5050485;28;20404;-74
2021/01/08 09:16:52;;;;;;;7.37;6.70;;;;;;;0.02;98.60;100131.16;5048281;28;20428;-74
2021/01/08 09:19:41;;;;;;;7.40;5.80;;;;;;;-0.02;98.39;100134.31;5050066;28;20833;-73
2021/01/08 09:22:07;;;;;;;9.70;8.80;;;;;;;-0.03;97.90;100137.25;5050105;28;20430;-74
2021/01/08 09:24:36;;;;;;;10.03;9.13;;;;;;;0.00;98.07;100142.16;5049928;28;20410;-74
2021/01/08 09:27:07;;;;;;;9.07;8.27;;;;;;;0.00;98.41;100142.16;5053548;28;20576;-74
2021/01/08 09:29:35;;;;;;;9.60;8.70;;;;;;;-0.01;98.32;100146.66;5053939;28;20807;-73
2021/01/08 09:32:02;;;;;;;9.70;8.67;;;;;;;-0.02;98.30;100153.09;5051442;28;20461;-74
2021/01/08 09:34:29;;;;;;;9.43;8.47;;;;;;;-0.01;98.10;100152.03;5052011;28;20410;-74
2021/01/08 09:36:57;;;;;;;9.67;8.50;;;;;;;0.02;98.31;100152.63;5053221;28;20897;-74
2021/01/08 09:39:27;;;;;;;9.63;8.70;;;;;;;0.04;98.09;100154.00;5053564;28;20413;-74
2021/01/08 09:42:00;;;;;;;7.57;6.87;;;;;;;0.05;98.29;100158.31;5053511;28;20500;-74
2021/01/08 09:44:36;;;;;;;9.10;8.20;;;;;;;0.07;98.26;100160.75;5053386;28;20455;-74
2021/01/08 09:47:10;;;;;;;10.60;9.33;;;;;;;0.08;97.99;100159.69;5053095;28;20416;-75
2021/01/08 09:49:52;;;;;;;11.27;10.17;;;;;;;0.10;98.38;100160.25;5053419;28;20418;-75
2021/01/08 09:52:26;;;;;;;9.17;8.27;;;;;;;0.11;98.08;100167.22;5053134;28;20820;-73
2021/01/08 09:54:52;;;;;;;8.07;7.27;;;;;;;0.14;97.99;100164.03;5053281;28;20421;-72
2021/01/08 09:57:37;;;;;;;10.60;9.57;;;;;;;0.16;98.00;100168.13;5052279;28;20429;-72
2021/01/08 10:00:11;;;;;;;10.00;9.00;;;;;;;0.16;97.93;100167.31;5050856;28;20180;-72
2021/01/08 10:02:41;;;;;;;9.10;8.03;;;;;;;0.21;98.19;100173.56;5051236;28;20967;-73
2021/01/08 10:05:27;;;;;;;8.80;7.90;;;;;;;0.28;98.03;100168.78;5051688;28;20425;-72
2021/01/08 10:07:52;;;;;;;8.10;7.40;;;;;;;0.27;97.74;100174.41;5037072;28;20932;-73
2021/01/08 10:10:37;;;;;;;8.87;7.97;;;;;;;0.27;98.09;100169.84;5053000;28;20440;-73
2021/01/08 10:13:05;;;;;;;7.87;7.17;;;;;;;0.30;98.05;100176.63;5052854;28;20236;-72
2021/01/08 10:15:35;;;;;;;8.67;7.77;;;;;;;0.32;98.21;100179.88;5052838;28;20418;-72
2021/01/08 10:18:10;;;;;;;10.03;9.13;;;;;;;0.36;97.82;100186.34;5052616;28;20800;-73
2021/01/08 10:20:50;;;;;;;8.00;7.20;;;;;;;0.33;97.39;100181.50;5052861;28;20446;-73
2021/01/08 10:23:17;;;;;;;9.60;8.60;;;;;;;0.32;97.62;100184.44;5052724;28;20908;-73
2021/01/08 10:25:44;;;;;;;9.33;8.47;;;;;;;0.33;97.51;100184.19;5052745;28;20416;-73
2021/01/08 10:28:15;;;;;;;9.27;8.47;;;;;;;0.28;97.56;100184.91;5052388;28;20426;-73
2021/01/08 10:30:41;;;;;;;8.70;7.90;;;;;;;0.40;97.27;100192.03;5052997;28;20402;-73
2021/01/08 10:33:07;;;;;;;8.73;7.93;;;;;;;0.42;97.37;100196.09;5052567;28;20457;-73
2021/01/08 10:35:34;;;;;;;10.17;9.30;;;;;;;0.41;96.96;100189.09;5052522;28;20943;-73
2021/01/08 10:38:00;;;;;;;11.77;10.67;;;;;;;0.25;97.49;100189.97;5052137;28;20456;-73
2021/01/08 10:40:26;;;;;;;16.80;15.40;;;;;;;0.40;97.38;100184.78;5054445;28;20410;-73
2021/01/08 10:42:51;;;;;;;15.80;14.30;;;;;;;0.43;97.51;100195.03;5052245;28;20175;-73
2021/01/08 10:45:17;;;;;;;18.10;16.07;;;;;;;0.28;97.18;100194.84;5052872;28;20429;-73
2021/01/08 10:47:43;;;;;;;14.73;13.10;;;;;;;0.33;97.79;100192.25;5052183;28;20171;-74
2021/01/08 10:50:10;;;;;;;20.60;15.90;;;;;;;0.31;97.37;100196.25;5052426;28;20240;-79
2021/01/08 10:52:35;;;;;;;26.17;20.50;;;;;;;0.49;97.68;100194.03;5051896;28;20195;-74
2021/01/08 10:55:01;;;;;;;18.97;14.23;;;;;;;0.34;97.52;100187.69;5052017;28;20571;-73
2021/01/08 10:57:26;;;;;;;14.67;12.97;;;;;;;0.28;97.33;100189.47;5051832;28;20262;-74
2021/01/08 10:59:52;;;;;;;34.97;27.50;;;;;;;0.43;97.45;100192.34;5052059;28;20273;-74
2021/01/08 11:02:17;;;;;;;15.90;13.87;;;;;;;0.27;97.34;100196.72;5051563;28;20171;-73
2021/01/08 11:04:43;;;;;;;18.67;16.07;;;;;;;0.34;97.16;100193.06;5051647;28;20174;-75
2021/01/08 11:07:11;;;;;;;21.27;16.97;;;;;;;0.25;97.05;100192.66;5051260;28;20217;-73
2021/01/08 11:09:37;;;;;;;22.37;18.37;;;;;;;0.34;97.31;100199.22;5051899;28;20171;-73
2021/01/08 11:12:03;;;;;;;21.50;19.30;;;;;;;0.30;97.07;100187.38;5051673;28;20805;-73
2021/01/08 11:14:29;;;;;;;31.17;22.37;;;;;;;0.35;97.32;100195.47;5051659;28;20175;-74
2021/01/08 11:16:54;;;;;;;16.63;14.33;;;;;;;0.33;97.60;100192.25;5051177;28;20493;-74
2021/01/08 11:19:19;;;;;;;13.67;12.30;;;;;;;0.32;97.05;100190.63;5051629;28;20175;-74
2021/01/08 11:21:46;;;;;;;17.73;15.23;;;;;;;0.45;97.26;100192.94;5051468;28;20179;-73
2021/01/08 11:24:12;;;;;;;14.80;13.30;;;;;;;0.55;97.28;100195.72;5051557;28;20191;-74
2021/01/08 11:26:37;;;;;;;16.87;15.40;;;;;;;0.61;96.99;100199.28;5051034;28;20886;-74
2021/01/08 11:29:02;;;;;;;16.87;15.50;;;;;;;0.71;96.26;100196.69;5051400;28;20163;-73
2021/01/08 11:31:35;;;;;;;14.03;12.87;;;;;;;0.84;96.22;100200.88;5050014;28;20306;-74
2021/01/08 11:34:02;;;;;;;11.07;10.17;;;;;;;0.98;95.68;100193.22;5051197;28;20179;-73